sensor_id;sensor_type;location;lat;lon;timestamp;pressure;altitude;pressure_sealevel;temperature;humidity
10940;BME280;5522;42.696;23.494;2023-04-07T00:01:31;53803.56;;;-139.68;100.00
10940;BME280;5522;42.696;23.494;2023-04-07T00:03:58;53799.53;;;-139.68;100.00
10940;BME280;5522;42.696;23.494;2023-04-07T00:06:26;53771.38;;;-139.68;100.00
10940;BME280;5522;42.696;23.494;2023-04-07T00:08:53;53787.47;;;-139.68;100.00
10940;BME280;5522;42.696;23.494;2023-04-07T00:11:20;53771.38;;;-139.68;100.00
10940;BME280;5522;42.696;23.494;2023-04-07T00:13:47;53781.44;;;-139.68;100.00
10940;BME280;5522;42.696;23.494;2023-04-07T00:16:14;53767.38;;;-139.68;100.00
10940;BME280;5522;42.696;23.494;2023-04-07T00:18:41;53805.56;;;-139.68;100.00
10940;BME280;5522;42.696;23.494;2023-04-07T00:21:07;53781.44;;;-139.68;100.00
10940;BME280;5522;42.696;23.494;2023-04-07T00:23:36;53767.38;;;-139.68;100.00
10940;BME280;5522;42.696;23.494;2023-04-07T00:26:02;53787.47;;;-139.68;100.00
10940;BME280;5522;42.696;23.494;2023-04-07T00:28:29;53787.47;;;-139.68;100.00
10940;BME280;5522;42.696;23.494;2023-04-07T00:30:56;53767.38;;;-139.68;100.00
10940;BME280;5522;42.696;23.494;2023-04-07T00:33:23;53763.34;;;-139.68;100.00
10940;BME280;5522;42.696;23.494;2023-04-07T00:35:50;53761.34;;;-139.68;100.00
10940;BME280;5522;42.696;23.494;2023-04-07T00:38:18;53747.25;;;-139.68;100.00
10940;BME280;5522;42.696;23.494;2023-04-07T00:40:47;53787.47;;;-139.68;100.00
10940;BME280;5522;42.696;23.494;2023-04-07T00:43:13;53789.47;;;-139.68;100.00
10940;BME280;5522;42.696;23.494;2023-04-07T00:45:40;53775.41;;;-139.68;100.00
10940;BME280;5522;42.696;23.494;2023-04-07T00:48:09;53749.28;;;-139.68;100.00
10940;BME280;5522;42.696;23.494;2023-04-07T00:50:35;53801.53;;;-139.68;100.00
10940;BME280;5522;42.696;23.494;2023-04-07T00:53:03;53783.44;;;-139.68;100.00
10940;BME280;5522;42.696;23.494;2023-04-07T00:55:30;53747.25;;;-139.68;100.00
10940;BME280;5522;42.696;23.494;2023-04-07T00:57:58;53771.38;;;-139.68;100.00
10940;BME280;5522;42.696;23.494;2023-04-07T01:05:54;53763.34;;;-139.68;100.00
10940;BME280;5522;42.696;23.494;2023-04-07T01:08:25;53719.13;;;-139.68;100.00
10940;BME280;5522;42.696;23.494;2023-04-07T01:11:02;53757.31;;;-139.68;100.00
10940;BME280;5522;42.696;23.494;2023-04-07T01:13:36;53715.09;;;-139.68;100.00
10940;BME280;5522;42.696;23.494;2023-04-07T01:16:08;53767.38;;;-139.68;100.00
10940;BME280;5522;42.696;23.494;2023-04-07T01:18:37;53765.34;;;-139.68;100.00
10940;BME280;5522;42.696;23.494;2023-04-07T01:21:06;53755.31;;;-139.68;100.00
10940;BME280;5522;42.696;23.494;2023-04-07T01:23:44;53723.13;;;-139.68;100.00
10940;BME280;5522;42.696;23.494;2023-04-07T01:26:20;53729.16;;;-139.68;100.00
10940;BME280;5522;42.696;23.494;2023-04-07T01:28:56;53743.25;;;-139.68;100.00
10940;BME280;5522;42.696;23.494;2023-04-07T01:31:31;53733.19;;;-139.68;100.00
10940;BME280;5522;42.696;23.494;2023-04-07T01:34:00;53775.41;;;-139.68;100.00
10940;BME280;5522;42.696;23.494;2023-04-07T01:36:28;53779.44;;;-139.68;100.00
10940;BME280;5522;42.696;23.494;2023-04-07T01:38:59;53719.13;;;-139.68;100.00
10940;BME280;5522;42.696;23.494;2023-04-07T01:41:26;53719.13;;;-139.68;100.00
10940;BME280;5522;42.696;23.494;2023-04-07T01:43:54;53771.38;;;-139.68;100.00
10940;BME280;5522;42.696;23.494;2023-04-07T01:46:21;53767.38;;;-139.68;100.00
10940;BME280;5522;42.696;23.494;2023-04-07T01:48:50;53783.44;;;-139.68;100.00
10940;BME280;5522;42.696;23.494;2023-04-07T01:51:19;53747.25;;;-139.68;100.00
10940;BME280;5522;42.696;23.494;2023-04-07T01:53:47;53771.38;;;-139.68;100.00
10940;BME280;5522;42.696;23.494;2023-04-07T01:56:15;53763.34;;;-139.68;100.00
10940;BME280;5522;42.696;23.494;2023-04-07T01:58:42;53767.38;;;-139.68;100.00
10940;BME280;5522;42.696;23.494;2023-04-07T02:01:09;53783.44;;;-139.68;100.00
10940;BME280;5522;42.696;23.494;2023-04-07T02:03:43;53739.22;;;-139.68;100.00
10940;BME280;5522;42.696;23.494;2023-04-07T02:06:16;53735.19;;;-139.68;100.00
10940;BME280;5522;42.696;23.494;2023-04-07T02:08:49;53727.16;;;-139.68;100.00
10940;BME280;5522;42.696;23.494;2023-04-07T02:11:19;53747.25;;;-139.68;100.00
10940;BME280;5522;42.696;23.494;2023-04-07T02:13:46;53783.44;;;-139.68;100.00
10940;BME280;5522;42.696;23.494;2023-04-07T02:16:15;53755.31;;;-139.68;100.00
10940;BME280;5522;42.696;23.494;2023-04-07T02:18:43;53779.44;;;-139.68;100.00
10940;BME280;5522;42.696;23.494;2023-04-07T02:21:14;53775.41;;;-139.68;100.00
10940;BME280;5522;42.696;23.494;2023-04-07T02:23:41;53751.28;;;-139.68;100.00
10940;BME280;5522;42.696;23.494;2023-04-07T02:26:08;53721.13;;;-139.68;100.00
10940;BME280;5522;42.696;23.494;2023-04-07T02:28:36;53777.41;;;-139.68;100.00
10940;BME280;5522;42.696;23.494;2023-04-07T02:31:02;53727.16;;;-139.68;100.00
10940;BME280;5522;42.696;23.494;2023-04-07T02:33:29;53755.31;;;-139.68;100.00
10940;BME280;5522;42.696;23.494;2023-04-07T02:35:56;53765.34;;;-139.68;100.00
10940;BME280;5522;42.696;23.494;2023-04-07T02:38:24;53781.44;;;-139.68;100.00
10940;BME280;5522;42.696;23.494;2023-04-07T02:40:51;53745.25;;;-139.68;100.00
10940;BME280;5522;42.696;23.494;2023-04-07T02:43:19;53791.50;;;-139.68;100.00
10940;BME280;5522;42.696;23.494;2023-04-07T02:45:45;53735.19;;;-139.68;100.00
10940;BME280;5522;42.696;23.494;2023-04-07T02:48:12;53755.31;;;-139.68;100.00
10940;BME280;5522;42.696;23.494;2023-04-07T02:50:39;53753.28;;;-139.68;100.00
10940;BME280;5522;42.696;23.494;2023-04-07T02:53:06;53745.25;;;-139.68;100.00
10940;BME280;5522;42.696;23.494;2023-04-07T02:55:35;53753.28;;;-139.68;100.00
10940;BME280;5522;42.696;23.494;2023-04-07T02:58:01;53743.25;;;-139.68;100.00
10940;BME280;5522;42.696;23.494;2023-04-07T03:00:28;53767.38;;;-139.68;100.00
10940;BME280;5522;42.696;23.494;2023-04-07T03:02:55;53777.41;;;-139.68;100.00
10940;BME280;5522;42.696;23.494;2023-04-07T03:05:22;53779.44;;;-139.68;100.00
10940;BME280;5522;42.696;23.494;2023-04-07T03:07:49;53747.25;;;-139.68;100.00
10940;BME280;5522;42.696;23.494;2023-04-07T03:10:16;53741.22;;;-139.68;100.00
10940;BME280;5522;42.696;23.494;2023-04-07T03:12:44;53767.38;;;-139.68;100.00
10940;BME280;5522;42.696;23.494;2023-04-07T03:15:11;53739.22;;;-139.68;100.00
10940;BME280;5522;42.696;23.494;2023-04-07T03:17:38;53767.38;;;-139.68;100.00
10940;BME280;5522;42.696;23.494;2023-04-07T03:20:06;53723.13;;;-139.68;100.00
10940;BME280;5522;42.696;23.494;2023-04-07T03:22:33;53747.25;;;-139.68;100.00
10940;BME280;5522;42.696;23.494;2023-04-07T03:25:00;53781.44;;;-139.68;100.00
10940;BME280;5522;42.696;23.494;2023-04-07T03:27:27;53747.25;;;-139.68;100.00
10940;BME280;5522;42.696;23.494;2023-04-07T03:29:55;53787.47;;;-139.68;100.00
10940;BME280;5522;42.696;23.494;2023-04-07T03:32:21;53781.44;;;-139.68;100.00
10940;BME280;5522;42.696;23.494;2023-04-07T03:34:48;53727.16;;;-139.68;100.00
10940;BME280;5522;42.696;23.494;2023-04-07T03:37:15;53727.16;;;-139.68;100.00
10940;BME280;5522;42.696;23.494;2023-04-07T03:39:42;53709.06;;;-139.68;100.00
10940;BME280;5522;42.696;23.494;2023-04-07T03:42:09;53783.44;;;-139.68;100.00
10940;BME280;5522;42.696;23.494;2023-04-07T03:44:35;53771.38;;;-139.68;100.00
10940;BME280;5522;42.696;23.494;2023-04-07T03:47:04;53743.25;;;-139.68;100.00
10940;BME280;5522;42.696;23.494;2023-04-07T03:49:30;53739.22;;;-139.68;100.00
10940;BME280;5522;42.696;23.494;2023-04-07T03:51:57;53779.44;;;-139.68;100.00
10940;BME280;5522;42.696;23.494;2023-04-07T03:54:24;53749.28;;;-139.68;100.00
10940;BME280;5522;42.696;23.494;2023-04-07T03:56:51;53723.13;;;-139.68;100.00
10940;BME280;5522;42.696;23.494;2023-04-07T03:59:18;53731.19;;;-139.68;100.00
10940;BME280;5522;42.696;23.494;2023-04-07T04:01:45;53783.44;;;-139.68;100.00
10940;BME280;5522;42.696;23.494;2023-04-07T04:04:13;53773.41;;;-139.68;100.00
10940;BME280;5522;42.696;23.494;2023-04-07T04:06:40;53751.28;;;-139.68;100.00
10940;BME280;5522;42.696;23.494;2023-04-07T04:09:06;53787.47;;;-139.68;100.00
10940;BME280;5522;42.696;23.494;2023-04-07T04:11:33;53733.19;;;-139.68;100.00
10940;BME280;5522;42.696;23.494;2023-04-07T04:14:00;53793.50;;;-139.68;100.00
10940;BME280;5522;42.696;23.494;2023-04-07T04:16:27;53747.25;;;-139.68;100.00
10940;BME280;5522;42.696;23.494;2023-04-07T04:18:55;53751.28;;;-139.68;100.00
10940;BME280;5522;42.696;23.494;2023-04-07T04:21:24;53757.31;;;-139.68;100.00
10940;BME280;5522;42.696;23.494;2023-04-07T04:23:51;53789.47;;;-139.68;100.00
10940;BME280;5522;42.696;23.494;2023-04-07T04:26:18;53775.41;;;-139.68;100.00
10940;BME280;5522;42.696;23.494;2023-04-07T04:28:45;53755.31;;;-139.68;100.00
10940;BME280;5522;42.696;23.494;2023-04-07T04:31:12;53745.25;;;-139.68;100.00
10940;BME280;5522;42.696;23.494;2023-04-07T04:33:39;53771.38;;;-139.68;100.00
10940;BME280;5522;42.696;23.494;2023-04-07T04:36:06;53727.16;;;-139.68;100.00
10940;BME280;5522;42.696;23.494;2023-04-07T04:38:34;53791.50;;;-139.68;100.00
10940;BME280;5522;42.696;23.494;2023-04-07T04:41:01;53767.38;;;-139.68;100.00
10940;BME280;5522;42.696;23.494;2023-04-07T04:43:31;53779.44;;;-139.68;100.00
10940;BME280;5522;42.696;23.494;2023-04-07T04:45:58;53779.44;;;-139.68;100.00
10940;BME280;5522;42.696;23.494;2023-04-07T04:48:25;53751.28;;;-139.68;100.00
10940;BME280;5522;42.696;23.494;2023-04-07T04:50:52;53765.34;;;-139.68;100.00
10940;BME280;5522;42.696;23.494;2023-04-07T04:53:19;53755.31;;;-139.68;100.00
10940;BME280;5522;42.696;23.494;2023-04-07T04:55:47;53767.38;;;-139.68;100.00
10940;BME280;5522;42.696;23.494;2023-04-07T04:58:16;53791.50;;;-139.68;100.00
10940;BME280;5522;42.696;23.494;2023-04-07T05:00:43;53791.50;;;-139.68;100.00
10940;BME280;5522;42.696;23.494;2023-04-07T05:03:10;53763.34;;;-139.68;100.00
10940;BME280;5522;42.696;23.494;2023-04-07T05:05:37;53773.41;;;-139.68;100.00
10940;BME280;5522;42.696;23.494;2023-04-07T05:08:04;53763.34;;;-139.68;100.00
10940;BME280;5522;42.696;23.494;2023-04-07T05:10:31;53783.44;;;-139.68;100.00
10940;BME280;5522;42.696;23.494;2023-04-07T05:12:59;53753.28;;;-139.68;100.00
10940;BME280;5522;42.696;23.494;2023-04-07T05:15:26;53747.25;;;-139.68;100.00
10940;BME280;5522;42.696;23.494;2023-04-07T05:17:53;53771.38;;;-139.68;100.00
10940;BME280;5522;42.696;23.494;2023-04-07T05:20:20;53779.44;;;-139.68;100.00
10940;BME280;5522;42.696;23.494;2023-04-07T05:22:47;53811.59;;;-139.68;100.00
10940;BME280;5522;42.696;23.494;2023-04-07T05:25:14;53799.53;;;-139.68;100.00
10940;BME280;5522;42.696;23.494;2023-04-07T05:27:41;53777.41;;;-139.68;100.00
10940;BME280;5522;42.696;23.494;2023-04-07T05:30:10;53789.47;;;-139.68;100.00
10940;BME280;5522;42.696;23.494;2023-04-07T05:32:37;53757.31;;;-139.68;100.00
10940;BME280;5522;42.696;23.494;2023-04-07T05:35:04;53773.41;;;-139.68;98.85
10940;BME280;5522;42.696;23.494;2023-04-07T05:37:31;53815.63;;;-139.68;93.00
10940;BME280;5522;42.696;23.494;2023-04-07T05:39:58;53783.44;;;-139.68;93.67
10940;BME280;5522;42.696;23.494;2023-04-07T05:42:25;53829.69;;;-139.68;94.58
10940;BME280;5522;42.696;23.494;2023-04-07T05:44:51;53765.34;;;-139.68;98.23
10940;BME280;5522;42.696;23.494;2023-04-07T05:47:20;53791.50;;;-139.68;100.00
10940;BME280;5522;42.696;23.494;2023-04-07T05:49:46;53841.75;;;-139.68;100.00
10940;BME280;5522;42.696;23.494;2023-04-07T05:52:13;53795.50;;;-139.68;100.00
10940;BME280;5522;42.696;23.494;2023-04-07T05:54:40;53795.50;;;-139.68;100.00
10940;BME280;5522;42.696;23.494;2023-04-07T05:57:07;53807.56;;;-139.68;100.00
10940;BME280;5522;42.696;23.494;2023-04-07T05:59:34;53787.47;;;-139.68;100.00
10940;BME280;5522;42.696;23.494;2023-04-07T06:02:01;53803.56;;;-139.68;100.00
10940;BME280;5522;42.696;23.494;2023-04-07T06:04:30;53833.72;;;-139.68;100.00
10940;BME280;5522;42.696;23.494;2023-04-07T06:06:58;53823.66;;;-139.68;100.00
10940;BME280;5522;42.696;23.494;2023-04-07T06:09:25;53789.47;;;-139.68;100.00
10940;BME280;5522;42.696;23.494;2023-04-07T06:11:52;53791.50;;;-139.68;100.00
10940;BME280;5522;42.696;23.494;2023-04-07T06:14:19;53749.28;;;-139.68;99.43
10940;BME280;5522;42.696;23.494;2023-04-07T06:16:46;53799.53;;;-139.68;96.55
10940;BME280;5522;42.696;23.494;2023-04-07T06:19:12;53795.50;;;-139.68;96.75
10940;BME280;5522;42.696;23.494;2023-04-07T06:21:40;53781.44;;;-139.68;93.58
10940;BME280;5522;42.696;23.494;2023-04-07T06:24:08;53833.72;;;-139.68;90.83
10940;BME280;5522;42.696;23.494;2023-04-07T06:26:34;53783.44;;;-139.68;88.20
10940;BME280;5522;42.696;23.494;2023-04-07T06:29:02;53821.66;;;-139.68;83.22
10940;BME280;5522;42.696;23.494;2023-04-07T06:31:28;53823.66;;;-139.68;75.67
10940;BME280;5522;42.696;23.494;2023-04-07T06:33:55;53825.66;;;-139.68;67.96
10940;BME280;5522;42.696;23.494;2023-04-07T06:36:22;53803.56;;;-139.68;59.92
10940;BME280;5522;42.696;23.494;2023-04-07T06:38:50;53811.59;;;-139.68;52.31
10940;BME280;5522;42.696;23.494;2023-04-07T06:41:18;53920.16;;;-139.68;42.25
10940;BME280;5522;42.696;23.494;2023-04-07T06:43:46;64151.00;;;-139.68;100.00
10940;BME280;5522;42.696;23.494;2023-04-07T06:46:13;64151.00;;;-139.68;100.00
10940;BME280;5522;42.696;23.494;2023-04-07T06:48:40;64151.00;;;-139.68;100.00
10940;BME280;5522;42.696;23.494;2023-04-07T06:51:07;64151.00;;;-139.68;100.00
10940;BME280;5522;42.696;23.494;2023-04-07T06:53:34;64151.00;;;-139.68;100.00
10940;BME280;5522;42.696;23.494;2023-04-07T06:56:07;64151.00;;;-139.68;100.00
10940;BME280;5522;42.696;23.494;2023-04-07T06:58:35;64151.00;;;-139.68;100.00
10940;BME280;5522;42.696;23.494;2023-04-07T07:01:03;64151.00;;;-139.68;100.00
10940;BME280;5522;42.696;23.494;2023-04-07T07:03:30;64151.00;;;-139.68;100.00
10940;BME280;5522;42.696;23.494;2023-04-07T07:05:58;64151.00;;;-139.68;100.00
10940;BME280;5522;42.696;23.494;2023-04-07T07:08:25;64151.00;;;-139.68;100.00
10940;BME280;5522;42.696;23.494;2023-04-07T07:10:53;64151.00;;;-139.68;100.00
10940;BME280;5522;42.696;23.494;2023-04-07T07:13:25;64151.00;;;-139.68;100.00
10940;BME280;5522;42.696;23.494;2023-04-07T07:15:52;64151.00;;;-139.68;100.00
10940;BME280;5522;42.696;23.494;2023-04-07T07:18:19;64151.00;;;-139.68;100.00
10940;BME280;5522;42.696;23.494;2023-04-07T07:20:46;64151.00;;;-139.68;100.00
10940;BME280;5522;42.696;23.494;2023-04-07T07:23:13;64151.00;;;-139.68;100.00
10940;BME280;5522;42.696;23.494;2023-04-07T07:25:42;64151.00;;;-139.68;100.00
10940;BME280;5522;42.696;23.494;2023-04-07T07:28:09;64151.00;;;-139.68;100.00
10940;BME280;5522;42.696;23.494;2023-04-07T07:30:38;64151.00;;;-139.68;100.00
10940;BME280;5522;42.696;23.494;2023-04-07T07:33:05;64151.00;;;-139.68;100.00
10940;BME280;5522;42.696;23.494;2023-04-07T07:35:32;64151.00;;;-139.68;100.00
10940;BME280;5522;42.696;23.494;2023-04-07T07:37:59;64151.00;;;-139.68;100.00
10940;BME280;5522;42.696;23.494;2023-04-07T07:40:26;64151.00;;;-139.68;100.00
10940;BME280;5522;42.696;23.494;2023-04-07T07:42:53;64151.00;;;-139.68;100.00
10940;BME280;5522;42.696;23.494;2023-04-07T07:45:19;64151.00;;;-139.68;100.00
10940;BME280;5522;42.696;23.494;2023-04-07T07:47:48;64151.00;;;-139.68;100.00
10940;BME280;5522;42.696;23.494;2023-04-07T07:50:15;64151.00;;;-139.68;100.00
10940;BME280;5522;42.696;23.494;2023-04-07T07:52:41;64151.00;;;-139.68;100.00
10940;BME280;5522;42.696;23.494;2023-04-07T07:55:14;64151.00;;;-139.68;100.00
10940;BME280;5522;42.696;23.494;2023-04-07T07:57:41;64151.00;;;-139.68;100.00
10940;BME280;5522;42.696;23.494;2023-04-07T08:00:09;64151.00;;;-139.68;100.00
10940;BME280;5522;42.696;23.494;2023-04-07T08:02:36;64151.00;;;-139.68;100.00
10940;BME280;5522;42.696;23.494;2023-04-07T08:05:06;64151.00;;;-139.68;100.00
10940;BME280;5522;42.696;23.494;2023-04-07T08:07:33;64151.00;;;-139.68;100.00
10940;BME280;5522;42.696;23.494;2023-04-07T08:10:00;64151.00;;;-139.68;100.00
10940;BME280;5522;42.696;23.494;2023-04-07T08:12:26;64151.00;;;-139.68;100.00
10940;BME280;5522;42.696;23.494;2023-04-07T08:14:53;64151.00;;;-139.68;100.00
10940;BME280;5522;42.696;23.494;2023-04-07T08:17:20;64151.00;;;-139.68;100.00
10940;BME280;5522;42.696;23.494;2023-04-07T08:19:47;64151.00;;;-139.68;100.00
10940;BME280;5522;42.696;23.494;2023-04-07T08:22:15;64151.00;;;-139.68;100.00
10940;BME280;5522;42.696;23.494;2023-04-07T08:24:44;64151.00;;;-139.68;100.00
10940;BME280;5522;42.696;23.494;2023-04-07T08:27:11;64151.00;;;-139.68;100.00
10940;BME280;5522;42.696;23.494;2023-04-07T08:29:38;64151.00;;;-139.68;100.00
10940;BME280;5522;42.696;23.494;2023-04-07T08:32:05;64151.00;;;-139.68;100.00
10940;BME280;5522;42.696;23.494;2023-04-07T08:34:32;64151.00;;;-139.68;100.00
10940;BME280;5522;42.696;23.494;2023-04-07T08:36:59;64151.00;;;-139.68;100.00
10940;BME280;5522;42.696;23.494;2023-04-07T08:39:27;64151.00;;;-139.68;100.00
10940;BME280;5522;42.696;23.494;2023-04-07T08:41:54;64151.00;;;-139.68;100.00
10940;BME280;5522;42.696;23.494;2023-04-07T08:44:25;64151.00;;;-139.68;100.00
10940;BME280;5522;42.696;23.494;2023-04-07T08:46:56;64151.00;;;-139.68;100.00
10940;BME280;5522;42.696;23.494;2023-04-07T08:49:23;64151.00;;;-139.68;100.00
10940;BME280;5522;42.696;23.494;2023-04-07T08:51:58;64151.00;;;-139.68;100.00
10940;BME280;5522;42.696;23.494;2023-04-07T08:54:27;64151.00;;;-139.68;100.00
10940;BME280;5522;42.696;23.494;2023-04-07T08:56:54;64151.00;;;-139.68;100.00
10940;BME280;5522;42.696;23.494;2023-04-07T08:59:21;64151.00;;;-139.68;100.00
10940;BME280;5522;42.696;23.494;2023-04-07T09:01:51;64151.00;;;-139.68;100.00
10940;BME280;5522;42.696;23.494;2023-04-07T09:04:18;64151.00;;;-139.68;100.00
10940;BME280;5522;42.696;23.494;2023-04-07T09:06:48;64151.00;;;-139.68;100.00
10940;BME280;5522;42.696;23.494;2023-04-07T09:09:15;64151.00;;;-139.68;100.00
10940;BME280;5522;42.696;23.494;2023-04-07T09:11:43;64151.00;;;-139.68;100.00
10940;BME280;5522;42.696;23.494;2023-04-07T09:14:10;64151.00;;;-139.68;100.00
10940;BME280;5522;42.696;23.494;2023-04-07T09:16:37;64151.00;;;-139.68;100.00
10940;BME280;5522;42.696;23.494;2023-04-07T09:19:03;64151.00;;;-139.68;100.00
10940;BME280;5522;42.696;23.494;2023-04-07T09:21:46;64151.00;;;-139.68;100.00
10940;BME280;5522;42.696;23.494;2023-04-07T09:24:21;64151.00;;;-139.68;100.00
10940;BME280;5522;42.696;23.494;2023-04-07T09:26:49;64151.00;;;-139.68;100.00
10940;BME280;5522;42.696;23.494;2023-04-07T09:29:18;64151.00;;;-139.68;100.00
10940;BME280;5522;42.696;23.494;2023-04-07T09:31:47;64151.00;;;-139.68;100.00
10940;BME280;5522;42.696;23.494;2023-04-07T09:34:26;64151.00;;;-139.68;100.00
10940;BME280;5522;42.696;23.494;2023-04-07T09:36:54;64151.00;;;-139.68;100.00
10940;BME280;5522;42.696;23.494;2023-04-07T09:39:21;64151.00;;;-139.68;100.00
10940;BME280;5522;42.696;23.494;2023-04-07T09:41:50;64151.00;;;-139.68;100.00
10940;BME280;5522;42.696;23.494;2023-04-07T09:44:17;64151.00;;;-139.68;100.00
10940;BME280;5522;42.696;23.494;2023-04-07T09:46:48;64151.00;;;-139.68;100.00
10940;BME280;5522;42.696;23.494;2023-04-07T09:49:15;64151.00;;;-139.68;100.00
10940;BME280;5522;42.696;23.494;2023-04-07T09:51:52;64151.00;;;-139.68;100.00
10940;BME280;5522;42.696;23.494;2023-04-07T09:54:31;64151.00;;;-139.68;100.00
10940;BME280;5522;42.696;23.494;2023-04-07T09:57:01;64151.00;;;-139.68;100.00
10940;BME280;5522;42.696;23.494;2023-04-07T09:59:28;64151.00;;;-139.68;100.00
10940;BME280;5522;42.696;23.494;2023-04-07T10:01:56;64151.00;;;-139.68;100.00
10940;BME280;5522;42.696;23.494;2023-04-07T10:04:29;64151.00;;;-139.68;100.00
10940;BME280;5522;42.696;23.494;2023-04-07T10:06:57;64151.00;;;-139.68;100.00
10940;BME280;5522;42.696;23.494;2023-04-07T10:09:26;64151.00;;;-139.68;100.00
10940;BME280;5522;42.696;23.494;2023-04-07T10:11:54;64151.00;;;-139.68;100.00
10940;BME280;5522;42.696;23.494;2023-04-07T10:14:26;64151.00;;;-139.68;100.00
10940;BME280;5522;42.696;23.494;2023-04-07T10:16:53;64151.00;;;-139.68;100.00
10940;BME280;5522;42.696;23.494;2023-04-07T10:19:20;64151.00;;;-139.68;100.00
10940;BME280;5522;42.696;23.494;2023-04-07T10:21:50;64151.00;;;-139.68;100.00
10940;BME280;5522;42.696;23.494;2023-04-07T10:24:29;64151.00;;;-139.68;100.00
10940;BME280;5522;42.696;23.494;2023-04-07T10:27:03;64151.00;;;-139.68;100.00
10940;BME280;5522;42.696;23.494;2023-04-07T10:29:38;64151.00;;;-139.68;100.00
10940;BME280;5522;42.696;23.494;2023-04-07T10:32:06;64151.00;;;-139.68;100.00
10940;BME280;5522;42.696;23.494;2023-04-07T10:34:55;64151.00;;;-139.68;100.00
10940;BME280;5522;42.696;23.494;2023-04-07T10:37:24;64151.00;;;-139.68;100.00
10940;BME280;5522;42.696;23.494;2023-04-07T10:40:25;64151.00;;;-139.68;100.00
10940;BME280;5522;42.696;23.494;2023-04-07T10:42:45;64151.00;;;-139.68;100.00
10940;BME280;5522;42.696;23.494;2023-04-07T10:45:55;64151.00;;;-139.68;100.00
10940;BME280;5522;42.696;23.494;2023-04-07T10:48:24;64151.00;;;-139.68;100.00
10940;BME280;5522;42.696;23.494;2023-04-07T10:51:14;64151.00;;;-139.68;100.00
10940;BME280;5522;42.696;23.494;2023-04-07T10:57:21;64151.00;;;-139.68;100.00
10940;BME280;5522;42.696;23.494;2023-04-07T11:00:14;64151.00;;;-139.68;100.00
10940;BME280;5522;42.696;23.494;2023-04-07T11:02:42;64151.00;;;-139.68;100.00
10940;BME280;5522;42.696;23.494;2023-04-07T11:05:19;64151.00;;;-139.68;100.00
10940;BME280;5522;42.696;23.494;2023-04-07T11:07:51;64151.00;;;-139.68;100.00
10940;BME280;5522;42.696;23.494;2023-04-07T11:10:19;64151.00;;;-139.68;100.00
10940;BME280;5522;42.696;23.494;2023-04-07T11:12:58;64151.00;;;-139.68;100.00
10940;BME280;5522;42.696;23.494;2023-04-07T11:15:27;64151.00;;;-139.68;100.00
10940;BME280;5522;42.696;23.494;2023-04-07T11:18:11;64151.00;;;-139.68;100.00
10940;BME280;5522;42.696;23.494;2023-04-07T11:20:50;64151.00;;;-139.68;100.00
10940;BME280;5522;42.696;23.494;2023-04-07T11:23:18;64151.00;;;-139.68;100.00
10940;BME280;5522;42.696;23.494;2023-04-07T11:25:46;64151.00;;;-139.68;100.00
10940;BME280;5522;42.696;23.494;2023-04-07T11:28:14;64151.00;;;-139.68;100.00
10940;BME280;5522;42.696;23.494;2023-04-07T11:30:48;64151.00;;;-139.68;100.00
10940;BME280;5522;42.696;23.494;2023-04-07T11:33:19;64151.00;;;-139.68;100.00
10940;BME280;5522;42.696;23.494;2023-04-07T11:35:51;64151.00;;;-139.68;100.00
10940;BME280;5522;42.696;23.494;2023-04-07T11:38:22;64151.00;;;-139.68;100.00
10940;BME280;5522;42.696;23.494;2023-04-07T11:40:49;64151.00;;;-139.68;100.00
10940;BME280;5522;42.696;23.494;2023-04-07T11:43:17;64151.00;;;-139.68;100.00
10940;BME280;5522;42.696;23.494;2023-04-07T11:46:02;64151.00;;;-139.68;100.00
10940;BME280;5522;42.696;23.494;2023-04-07T11:48:31;64151.00;;;-139.68;100.00
10940;BME280;5522;42.696;23.494;2023-04-07T11:51:00;64151.00;;;-139.68;100.00
10940;BME280;5522;42.696;23.494;2023-04-07T11:53:29;64151.00;;;-139.68;100.00
10940;BME280;5522;42.696;23.494;2023-04-07T11:56:04;64151.00;;;-139.68;100.00
10940;BME280;5522;42.696;23.494;2023-04-07T11:58:32;64151.00;;;-139.68;100.00
10940;BME280;5522;42.696;23.494;2023-04-07T12:01:03;64151.00;;;-139.68;100.00
10940;BME280;5522;42.696;23.494;2023-04-07T12:03:34;64151.00;;;-139.68;100.00
10940;BME280;5522;42.696;23.494;2023-04-07T12:06:01;64151.00;;;-139.68;100.00
10940;BME280;5522;42.696;23.494;2023-04-07T12:08:42;64151.00;;;-139.68;100.00
10940;BME280;5522;42.696;23.494;2023-04-07T12:11:09;64151.00;;;-139.68;100.00
10940;BME280;5522;42.696;23.494;2023-04-07T12:13:37;64151.00;;;-139.68;100.00
10940;BME280;5522;42.696;23.494;2023-04-07T12:16:05;64151.00;;;-139.68;100.00
10940;BME280;5522;42.696;23.494;2023-04-07T12:18:32;64151.00;;;-139.68;100.00
10940;BME280;5522;42.696;23.494;2023-04-07T12:20:59;64151.00;;;-139.68;100.00
10940;BME280;5522;42.696;23.494;2023-04-07T12:23:26;64151.00;;;-139.68;100.00
10940;BME280;5522;42.696;23.494;2023-04-07T12:25:53;64151.00;;;-139.68;100.00
10940;BME280;5522;42.696;23.494;2023-04-07T12:28:20;64151.00;;;-139.68;100.00
10940;BME280;5522;42.696;23.494;2023-04-07T12:30:47;64151.00;;;-139.68;100.00
10940;BME280;5522;42.696;23.494;2023-04-07T12:33:15;64151.00;;;-139.68;100.00
10940;BME280;5522;42.696;23.494;2023-04-07T12:35:42;64151.00;;;-139.68;100.00
10940;BME280;5522;42.696;23.494;2023-04-07T12:38:09;64151.00;;;-139.68;100.00
10940;BME280;5522;42.696;23.494;2023-04-07T12:40:36;64151.00;;;-139.68;100.00
10940;BME280;5522;42.696;23.494;2023-04-07T12:43:03;64151.00;;;-139.68;100.00
10940;BME280;5522;42.696;23.494;2023-04-07T12:45:30;64151.00;;;-139.68;100.00
10940;BME280;5522;42.696;23.494;2023-04-07T12:47:57;64151.00;;;-139.68;100.00